Terminal Aerodrome Forecast
Issued by NWS

Home | Current Version | Previous Version | Graphics & Text | Print | Product List | Glossary On
Versions: 1 2 3 4 5 6 7 8 9 10 11 12 13
000
FTUS43 KIWX 282300 RRA
TAFSBN
TAF
KSBN 282342Z 2900/2924 34012KT P6SM SKC
     FM290200 30004KT P6SM FEW060
     FM291400 26006KT P6SM SCT070
     FM291800 30011KT P6SM FEW070=

USA.gov is the U.S. government's official web portal to all federal, state and local government web resources and services.